Time;durP1;ratioP1;P1;durP2;ratioP2;P2;SDS_P1;SDS_P2;PMS_P1;PMS_P2;Temp;Humidity;BMP_temperature;BMP_pressure;BME280_temperature;BME280_humidity;BME280_pressure;Samples;Min_cycle;Max_cycle;Signal;HPM_P1;HPM_P2
2022/04/09 00:01:34;;;;;;;15.75;6.97;;;;;;;14.86;100.00;99029.83;1762676;81;21029;-59
2022/04/09 00:04:01;;;;;;;16.70;8.10;;;;;;;14.89;100.00;99031.45;1762723;80;21050;-57
2022/04/09 00:06:29;;;;;;;12.33;6.33;;;;;;;14.87;100.00;99033.52;1762899;80;21119;-58
2022/04/09 00:08:58;;;;;;;14.75;6.40;;;;;;;14.62;100.00;99035.23;1752481;80;20887;-59
2022/04/09 00:11:26;;;;;;;12.33;7.58;;;;;;;14.23;100.00;99047.42;1762813;80;21060;-68
2022/04/09 00:13:54;;;;;;;11.65;6.47;;;;;;;14.35;100.00;99048.14;1763596;80;21009;-58
2022/04/09 00:16:21;;;;;;;13.35;6.50;;;;;;;14.31;100.00;99042.58;1763199;80;21042;-58
2022/04/09 00:18:50;;;;;;;12.28;6.58;;;;;;;14.32;100.00;99051.27;1763567;80;21003;-60
2022/04/09 00:21:18;;;;;;;13.45;7.53;;;;;;;14.28;100.00;99062.73;1763183;80;20927;-59
2022/04/09 00:23:46;;;;;;;12.40;6.62;;;;;;;14.03;100.00;99074.07;1763116;80;21031;-60
2022/04/09 00:26:14;;;;;;;15.10;7.90;;;;;;;14.05;100.00;99077.23;1763639;80;22497;-58
2022/04/09 00:28:41;;;;;;;10.95;6.60;;;;;;;13.89;100.00;99086.64;1795486;79;20998;-57
2022/04/09 00:31:10;;;;;;;13.60;6.25;;;;;;;14.16;100.00;99084.25;1757267;80;21120;-58
2022/04/09 00:33:37;;;;;;;11.97;6.70;;;;;;;14.16;100.00;99092.11;1747951;82;20921;-67
2022/04/09 00:36:06;;;;;;;12.23;6.15;;;;;;;13.98;100.00;99098.84;1755831;80;20969;-58
2022/04/09 00:38:34;;;;;;;11.70;6.33;;;;;;;14.07;100.00;99105.33;1747908;82;21057;-58
2022/04/09 00:41:01;;;;;;;13.08;6.12;;;;;;;14.11;100.00;99107.76;1756669;81;20953;-59
2022/04/09 00:43:29;;;;;;;10.60;5.45;;;;;;;13.97;100.00;99109.05;1745595;82;21260;-57
2022/04/09 00:45:57;;;;;;;11.60;6.25;;;;;;;14.06;100.00;99109.77;1713542;83;21003;-58
2022/04/09 00:48:24;;;;;;;12.30;6.33;;;;;;;13.93;100.00;99121.03;1795123;79;20982;-58
2022/04/09 00:50:54;;;;;;;13.45;6.25;;;;;;;13.88;100.00;99141.38;1756515;81;21092;-58
2022/04/09 00:53:22;;;;;;;9.10;5.40;;;;;;;13.88;100.00;99146.62;1756795;81;21028;-58
2022/04/09 00:58:38;;;;;;;12.37;6.40;;;;;;;13.77;100.00;99150.05;1757830;80;21017;-57
2022/04/09 01:01:06;;;;;;;13.18;7.58;;;;;;;13.99;100.00;99153.66;1758175;80;20923;-58
2022/04/09 01:03:34;;;;;;;11.80;6.60;;;;;;;13.82;100.00;99168.48;1748019;82;21033;-58
2022/04/09 01:06:02;;;;;;;10.65;5.67;;;;;;;13.50;100.00;99178.55;1758364;80;21558;-57
2022/04/09 01:08:30;;;;;;;9.98;5.60;;;;;;;13.57;100.00;99184.47;1749068;82;21120;-57
2022/04/09 01:10:58;;;;;;;10.15;5.97;;;;;;;13.21;100.00;99187.55;1715791;82;21008;-58
2022/04/09 01:13:26;;;;;;;11.60;5.67;;;;;;;13.31;100.00;99184.41;1795019;79;21002;-60
2022/04/09 01:15:53;;;;;;;10.30;4.97;;;;;;;13.63;100.00;99179.61;1795085;79;21429;-57
2022/04/09 01:18:22;;;;;;;8.18;4.95;;;;;;;13.32;100.00;99183.38;1793943;79;21022;-60
2022/04/09 01:21:01;;;;;;;8.68;5.12;;;;;;;13.53;100.00;99188.57;1793404;79;21920;-58
2022/04/09 01:23:28;;;;;;;9.30;5.20;;;;;;;13.37;100.00;99190.84;1757306;80;20949;-58
2022/04/09 01:26:00;;;;;;;9.08;4.75;;;;;;;13.48;100.00;99198.39;1746673;80;20887;-57
2022/04/09 01:28:27;;;;;;;9.83;4.83;;;;;;;13.19;100.00;99201.89;1752950;81;20981;-60
2022/04/09 01:30:55;;;;;;;9.20;4.55;;;;;;;13.21;100.00;99195.39;1739888;81;20958;-67
2022/04/09 01:33:24;;;;;;;6.87;3.70;;;;;;;13.34;100.00;99195.22;1752262;81;21298;-59
2022/04/09 01:35:52;;;;;;;7.70;5.12;;;;;;;13.16;100.00;99208.36;1752595;81;20993;-59
2022/04/09 01:38:21;;;;;;;7.00;3.62;;;;;;;13.18;100.00;99201.58;1743532;82;20938;-58
2022/04/09 01:40:49;;;;;;;7.28;3.70;;;;;;;13.06;100.00;99202.88;1718381;82;20951;-58
2022/04/09 01:43:21;;;;;;;7.33;3.67;;;;;;;13.08;100.00;99205.56;1743162;82;21291;-59
2022/04/09 01:45:48;;;;;;;11.93;4.08;;;;;;;13.03;100.00;99209.37;1751638;81;21115;-58
2022/04/09 01:48:20;;;;;;;7.40;3.02;;;;;;;13.04;100.00;99216.71;1743655;82;21527;-58
2022/04/09 01:50:49;;;;;;;8.75;3.92;;;;;;;13.03;100.00;99217.70;1748798;81;21039;-59
2022/04/09 01:53:16;;;;;;;5.87;3.22;;;;;;;12.98;100.00;99224.13;1752494;81;22396;-59
2022/04/09 01:55:44;;;;;;;5.10;3.00;;;;;;;12.86;100.00;99237.97;1743099;82;21430;-58
2022/04/09 01:58:14;;;;;;;6.00;3.15;;;;;;;12.74;100.00;99237.66;1750899;81;20962;-58
2022/04/09 02:00:46;;;;;;;6.50;3.27;;;;;;;12.69;100.00;99246.17;1742583;82;21544;-59
2022/04/09 02:03:13;;;;;;;6.45;3.02;;;;;;;12.64;100.00;99253.86;1751648;81;21608;-61
2022/04/09 02:05:42;;;;;;;7.92;4.60;;;;;;;12.59;100.00;99247.99;1743192;82;21587;-59
2022/04/09 02:08:12;;;;;;;7.42;3.20;;;;;;;12.64;100.00;99243.40;1751636;81;20899;-59
2022/04/09 02:10:40;;;;;;;6.83;2.83;;;;;;;12.60;100.00;99243.55;1752366;81;21118;-63
2022/04/09 02:13:14;;;;;;;6.65;3.05;;;;;;;12.57;100.00;99257.06;1743676;82;20903;-61
2022/04/09 02:15:42;;;;;;;6.95;3.10;;;;;;;12.46;100.00;99261.72;1719661;83;21003;-58
2022/04/09 02:18:12;;;;;;;6.47;2.95;;;;;;;12.49;100.00;99267.83;1743754;82;21025;-57
2022/04/09 02:20:39;;;;;;;6.90;2.62;;;;;;;12.61;100.00;99270.80;1751257;81;21457;-67
2022/04/09 02:23:08;;;;;;;5.55;2.72;;;;;;;12.52;100.00;99270.00;1743643;82;21002;-58
2022/04/09 02:25:37;;;;;;;5.70;2.80;;;;;;;12.53;100.00;99276.31;1751591;81;21081;-58
2022/04/09 02:28:07;;;;;;;6.22;2.72;;;;;;;12.50;100.00;99286.40;1743435;82;20959;-59
2022/04/09 02:30:34;;;;;;;4.65;2.65;;;;;;;12.28;100.00;99279.02;1750915;81;21531;-59
2022/04/09 02:33:03;;;;;;;4.60;2.60;;;;;;;12.24;100.00;99273.94;1743666;82;21524;-60
2022/04/09 02:35:35;;;;;;;5.25;2.58;;;;;;;12.18;100.00;99271.67;1731608;81;21237;-58
2022/04/09 02:38:03;;;;;;;5.03;3.10;;;;;;;12.21;100.00;99280.11;1752164;81;21310;-60
2022/04/09 02:40:32;;;;;;;6.90;3.00;;;;;;;12.25;100.00;99290.41;1742751;82;21006;-66
2022/04/09 02:42:59;;;;;;;5.33;2.85;;;;;;;12.14;100.00;99282.27;1755491;80;21068;-59
2022/04/09 02:45:28;;;;;;;4.20;2.25;;;;;;;12.18;100.00;99285.25;1752764;81;20989;-60
2022/04/09 02:47:57;;;;;;;6.70;3.05;;;;;;;11.99;100.00;99287.56;1741895;81;20859;-58
2022/04/09 02:50:26;;;;;;;5.20;2.50;;;;;;;12.09;100.00;99289.97;1743596;82;20864;-59
2022/04/09 02:52:54;;;;;;;4.62;2.60;;;;;;;12.19;100.00;99295.98;1750817;81;21626;-60
2022/04/09 02:55:24;;;;;;;5.15;2.40;;;;;;;12.16;100.00;99302.46;1752346;81;21488;-60
2022/04/09 02:57:51;;;;;;;6.17;2.45;;;;;;;11.98;100.00;99308.97;1752839;81;21088;-59
2022/04/09 03:00:21;;;;;;;5.35;2.80;;;;;;;11.91;100.00;99309.52;1743417;79;21206;-59
2022/04/09 03:02:48;;;;;;;4.87;2.27;;;;;;;11.80;100.00;99301.85;1745735;82;21099;-60
2022/04/09 03:05:17;;;;;;;3.95;2.08;;;;;;;11.86;100.00;99308.88;1747023;81;21758;-59
2022/04/09 03:07:44;;;;;;;5.00;2.50;;;;;;;11.90;100.00;99315.27;1721885;83;21049;-59
2022/04/09 03:10:11;;;;;;;4.72;2.35;;;;;;;12.36;100.00;99313.22;1747076;81;21046;-58
2022/04/09 03:12:46;;;;;;;4.10;1.90;;;;;;;12.71;100.00;99322.56;1721788;83;21134;-61
2022/04/09 03:15:16;;;;;;;3.95;1.87;;;;;;;13.15;100.00;99322.70;1746988;81;21434;-59
2022/04/09 03:17:43;;;;;;;3.98;1.70;;;;;;;13.61;100.00;99328.31;1746547;82;21057;-59
2022/04/09 03:20:12;;;;;;;3.45;2.05;;;;;;;14.03;100.00;99332.16;1722763;83;21029;-67
2022/04/09 03:22:47;;;;;;;3.77;1.40;;;;;;;14.67;100.00;99330.41;1746105;82;21011;-58
2022/04/09 03:25:16;;;;;;;3.98;1.80;;;;;;;15.39;100.00;99344.33;1746394;81;21233;-59
2022/04/09 03:27:46;;;;;;;3.50;1.90;;;;;;;15.78;100.00;99341.31;1768847;80;20950;-60
2022/04/09 03:30:14;;;;;;;4.80;1.50;;;;;;;16.45;96.11;99343.05;1712153;83;21232;-64
2022/04/09 03:32:44;;;;;;;3.57;1.63;;;;;;;17.10;81.18;99340.14;1746304;82;21742;-58
2022/04/09 03:35:13;;;;;;;3.20;1.40;;;;;;;17.03;72.25;99346.91;1747713;80;21225;-59
2022/04/09 03:37:44;;;;;;;4.80;1.60;;;;;;;16.89;69.13;99357.55;1712894;82;21302;-59
2022/04/09 03:40:13;;;;;;;3.97;1.70;;;;;;;17.12;68.06;99354.37;1746788;82;21271;-68
2022/04/09 03:42:43;;;;;;;4.53;1.67;;;;;;;17.94;62.06;99354.59;1715758;81;21402;-60
2022/04/09 03:45:11;;;;;;;4.83;1.87;;;;;;;17.94;62.06;99354.59;1723567;81;21905;-58
2022/04/09 03:47:38;;;;;;;4.20;1.83;;;;;;;18.44;59.66;99365.97;1709409;82;21758;-59
2022/04/09 03:50:08;;;;;;;3.67;1.53;;;;;;;19.71;55.01;99363.45;1704118;82;21782;-59
2022/04/09 03:52:38;;;;;;;3.08;1.70;;;;;;;19.71;55.01;99363.45;1700124;82;20981;-59
2022/04/09 03:55:07;;;;;;;3.10;1.40;;;;;;;20.47;51.72;99365.72;1730010;82;21084;-57
2022/04/09 03:57:34;;;;;;;3.13;1.57;;;;;;;20.95;48.98;99364.73;1730600;82;20956;-59
2022/04/09 04:00:01;;;;;;;3.30;1.40;;;;;;;21.43;47.10;99360.49;1730818;82;20999;-59
2022/04/09 04:02:30;;;;;;;3.07;1.57;;;;;;;21.90;45.36;99368.36;1727700;82;21297;-61
2022/04/09 04:05:02;;;;;;;2.43;1.07;;;;;;;22.20;44.10;99359.34;1727407;83;21058;-58
2022/04/09 04:07:27;;;;;;;3.20;1.50;;;;;;;22.62;42.61;99368.97;1727270;83;20937;-59
2022/04/09 04:10:05;;;;;;;2.93;1.33;;;;;;;22.70;41.87;99367.01;1717329;83;21080;-58
2022/04/09 04:12:33;;;;;;;2.83;1.07;;;;;;;23.10;41.27;99371.55;1722889;81;21451;-60
2022/04/09 04:15:03;;;;;;;3.17;1.50;;;;;;;23.53;41.02;99371.71;1727413;83;21522;-58
2022/04/09 04:17:44;;;;;;;3.17;1.40;;;;;;;24.21;39.99;99374.86;1697954;83;21542;-59
2022/04/09 04:20:14;;;;;;;2.03;1.27;;;;;;;24.72;39.08;99377.33;1727660;83;21088;-59
2022/04/09 04:22:43;;;;;;;2.87;1.52;;;;;;;25.31;38.07;99378.77;1699244;83;20998;-59
2022/04/09 04:25:13;;;;;;;4.87;1.73;;;;;;;26.02;36.91;99378.13;1727600;82;21062;-59
2022/04/09 04:27:43;;;;;;;3.13;1.60;;;;;;;26.69;35.16;99381.39;1727156;83;20938;-59
2022/04/09 04:30:11;;;;;;;3.57;1.30;;;;;;;27.04;34.70;99380.66;1698594;83;21008;-59
2022/04/09 04:32:39;;;;;;;3.77;1.60;;;;;;;27.41;33.88;99390.77;1727788;83;21477;-60
2022/04/09 04:35:09;;;;;;;2.10;1.30;;;;;;;27.67;33.31;99384.59;1727759;83;20981;-59
2022/04/09 04:37:43;;;;;;;2.63;1.50;;;;;;;28.02;33.02;99389.34;1727946;83;20921;-59
2022/04/09 04:40:13;;;;;;;5.65;2.05;;;;;;;28.10;32.63;99398.45;1722233;83;21000;-60
2022/04/09 04:42:41;;;;;;;4.20;1.60;;;;;;;28.16;31.84;99407.89;1728071;83;21063;-59
2022/04/09 04:45:10;;;;;;;3.27;1.70;;;;;;;27.98;31.70;99418.42;1727529;83;20998;-59
2022/04/09 04:47:48;;;;;;;2.25;1.40;;;;;;;27.95;31.83;99415.05;1727723;83;21068;-61
2022/04/09 04:50:18;;;;;;;2.92;1.70;;;;;;;27.92;31.86;99413.80;1727387;83;20946;-59
2022/04/09 04:52:46;;;;;;;2.47;1.32;;;;;;;28.02;31.53;99414.78;1728005;83;21229;-59
2022/04/09 04:55:14;;;;;;;2.95;1.50;;;;;;;28.02;31.86;99419.36;1727705;83;21472;-58
2022/04/09 04:57:46;;;;;;;2.90;1.37;;;;;;;28.25;31.37;99422.04;1727842;83;21561;-66
2022/04/09 05:00:20;;;;;;;1.95;1.15;;;;;;;28.55;30.65;99423.45;1727861;83;21063;-58
2022/04/09 05:02:51;;;;;;;2.70;1.40;;;;;;;28.49;30.68;99424.73;1719442;82;20903;-58
2022/04/09 05:05:19;;;;;;;2.65;1.30;;;;;;;28.04;30.61;99437.25;1717222;83;21233;-58
2022/04/09 05:07:49;;;;;;;1.70;1.20;;;;;;;27.74;31.04;99437.15;1716090;83;21031;-57
2022/04/09 05:10:20;;;;;;;2.65;1.40;;;;;;;28.64;30.61;99436.27;1717112;83;20891;-57
2022/04/09 05:12:50;;;;;;;3.42;1.30;;;;;;;28.31;30.47;99440.08;1716955;83;21038;-58
2022/04/09 05:15:17;;;;;;;2.33;1.45;;;;;;;28.48;30.41;99450.75;1717042;83;21491;-58
2022/04/09 05:17:46;;;;;;;2.02;1.35;;;;;;;28.61;29.95;99449.77;1692357;83;20965;-57
2022/04/09 05:20:15;;;;;;;2.37;1.50;;;;;;;28.21;30.57;99447.91;1717466;82;20926;-57
2022/04/09 05:22:46;;;;;;;3.72;1.30;;;;;;;28.00;30.13;99455.08;1716895;83;21114;-56
2022/04/09 05:25:16;;;;;;;2.83;1.40;;;;;;;27.98;30.13;99461.29;1716566;83;21555;-62
2022/04/09 05:27:44;;;;;;;3.35;1.72;;;;;;;27.50;31.15;99467.59;1692267;83;21631;-56
2022/04/09 05:30:13;;;;;;;3.22;1.50;;;;;;;27.51;31.20;99458.48;1716042;83;21262;-57
2022/04/09 05:32:43;;;;;;;3.17;1.40;;;;;;;27.30;31.40;99456.41;1716885;83;20953;-64
2022/04/09 05:35:12;;;;;;;2.50;1.10;;;;;;;26.85;31.70;99467.30;1716905;83;21081;-56
2022/04/09 05:37:46;;;;;;;2.07;1.27;;;;;;;26.05;32.40;99465.11;1716720;83;21512;-57
2022/04/09 05:40:15;;;;;;;2.50;1.57;;;;;;;25.39;33.63;99466.09;1717238;82;21038;-58
2022/04/09 05:42:42;;;;;;;2.40;1.40;;;;;;;24.74;35.02;99480.45;1717188;83;21280;-57
2022/04/09 05:45:11;;;;;;;2.10;1.20;;;;;;;24.22;35.14;99485.62;1716299;83;21057;-55
2022/04/09 05:47:42;;;;;;;3.20;1.73;;;;;;;23.69;36.23;99485.37;1717314;83;21524;-56
2022/04/09 05:50:09;;;;;;;2.63;1.40;;;;;;;23.47;36.71;99486.45;1717279;83;21525;-56
2022/04/09 05:52:39;;;;;;;2.50;1.30;;;;;;;23.26;37.28;99492.56;1717209;83;21732;-63
2022/04/09 05:55:07;;;;;;;2.50;1.43;;;;;;;23.43;37.49;99495.54;1717077;83;21137;-58
2022/04/09 05:57:35;;;;;;;2.30;1.37;;;;;;;23.69;37.22;99497.88;1716542;83;21025;-56
2022/04/09 06:00:05;;;;;;;2.17;1.37;;;;;;;24.19;36.72;99496.84;1717192;83;21512;-57
2022/04/09 06:02:37;;;;;;;3.20;1.20;;;;;;;24.41;36.87;99498.36;1721749;82;20990;-66
2022/04/09 06:05:06;;;;;;;3.80;1.40;;;;;;;24.43;36.23;99496.73;1728114;81;21043;-58
2022/04/09 06:07:33;;;;;;;2.47;1.20;;;;;;;24.23;36.29;99495.17;1699087;83;21253;-57
2022/04/09 06:10:06;;;;;;;3.10;1.55;;;;;;;24.11;36.45;99489.53;1727935;83;21697;-56
2022/04/09 06:12:34;;;;;;;2.20;1.30;;;;;;;24.12;36.82;99493.77;1727588;83;21421;-58
2022/04/09 06:15:05;;;;;;;6.53;1.93;;;;;;;24.13;36.76;99494.82;1727605;82;20979;-58
2022/04/09 06:17:36;;;;;;;3.05;1.32;;;;;;;24.24;36.44;99494.91;1727146;83;21460;-59
2022/04/09 06:20:04;;;;;;;2.97;1.33;;;;;;;24.29;36.46;99492.69;1723556;83;21290;-57
2022/04/09 06:22:32;;;;;;;1.90;1.00;;;;;;;24.33;36.25;99498.22;1698113;83;20976;-58
2022/04/09 06:25:00;;;;;;;2.37;1.43;;;;;;;24.35;36.22;99501.37;1728040;83;22230;-58
2022/04/09 06:27:28;;;;;;;2.47;1.27;;;;;;;24.60;35.59;99503.63;1727851;83;20902;-58
2022/04/09 06:29:56;;;;;;;2.30;1.50;;;;;;;25.05;35.13;99499.06;1717247;83;20977;-58
2022/04/09 06:32:23;;;;;;;2.23;1.20;;;;;;;25.58;34.55;99505.97;1727406;83;21251;-58
2022/04/09 06:34:51;;;;;;;1.90;1.40;;;;;;;26.27;33.22;99508.38;1728218;83;21437;-57
2022/04/09 06:37:20;;;;;;;2.50;1.33;;;;;;;26.89;32.04;99513.72;1726344;82;21052;-57
2022/04/09 06:39:47;;;;;;;2.03;1.20;;;;;;;27.16;31.77;99513.27;1727496;83;21084;-57
2022/04/09 06:42:16;;;;;;;2.13;1.30;;;;;;;27.63;30.83;99510.83;1699062;83;21519;-65
2022/04/09 06:45:04;;;;;;;3.07;1.57;;;;;;;28.53;29.49;99512.81;1724480;83;21257;-56
2022/04/09 06:47:37;;;;;;;2.02;1.40;;;;;;;28.65;28.92;99519.63;1726091;83;21546;-56
2022/04/09 06:50:11;;;;;;;2.17;1.12;;;;;;;28.59;29.02;99516.88;1727733;83;21024;-65
2022/04/09 06:52:40;;;;;;;1.92;1.07;;;;;;;28.71;28.79;99527.71;1727959;83;21076;-56
2022/04/09 06:55:09;;;;;;;2.30;1.20;;;;;;;28.95;28.35;99534.42;1728108;83;21003;-57
2022/04/09 06:57:38;;;;;;;2.42;1.20;;;;;;;28.78;28.53;99521.30;1727684;83;22157;-56
2022/04/09 07:00:13;;;;;;;1.60;1.02;;;;;;;28.91;28.22;99520.08;1727249;83;20953;-58
2022/04/09 07:02:41;;;;;;;2.85;1.30;;;;;;;29.12;27.79;99520.92;1701424;83;21060;-56
2022/04/09 07:05:09;;;;;;;2.22;1.10;;;;;;;29.48;27.49;99520.95;1744055;82;20947;-58
2022/04/09 07:07:36;;;;;;;2.52;1.20;;;;;;;29.83;26.53;99521.48;1742299;82;21002;-56
2022/04/09 07:10:10;;;;;;;3.37;1.15;;;;;;;30.10;26.26;99521.47;1725031;83;21152;-62
2022/04/09 07:12:39;;;;;;;1.92;1.02;;;;;;;30.29;25.83;99527.71;1742426;81;21270;-56
2022/04/09 07:15:07;;;;;;;2.17;0.93;;;;;;;30.57;25.30;99537.28;1743085;82;21627;-57
2022/04/09 07:17:34;;;;;;;2.52;1.40;;;;;;;30.74;25.05;99540.37;1741317;82;20971;-57
2022/04/09 07:20:05;;;;;;;2.58;1.60;;;;;;;31.00;24.43;99538.70;1724825;82;21056;-59
2022/04/09 07:22:36;;;;;;;;;;;;;;;31.02;24.42;99540.48;1745743;82;21474;-57
2022/04/09 07:25:06;;;;;;;1.98;1.05;;;;;;;31.11;23.54;99542.50;1744237;82;20468;-58
2022/04/09 07:27:42;;;;;;;3.90;1.20;;;;;;;31.37;23.25;99543.52;1730796;82;20997;-58
2022/04/09 07:30:14;;;;;;;3.90;1.77;;;;;;;31.10;23.44;99546.30;1730585;82;21804;-58
2022/04/09 07:32:43;;;;;;;2.37;1.20;;;;;;;31.42;23.58;99538.45;1730329;82;21001;-56
2022/04/09 07:35:14;;;;;;;2.40;1.22;;;;;;;32.20;22.59;99541.21;1730498;82;22081;-57
2022/04/09 07:37:44;;;;;;;2.90;1.30;;;;;;;31.99;21.92;99542.79;1730060;82;21024;-58
2022/04/09 07:40:12;;;;;;;2.75;1.80;;;;;;;32.02;21.92;99542.11;1730369;82;21067;-56
2022/04/09 07:42:43;;;;;;;2.10;1.10;;;;;;;31.66;22.12;99545.11;1730302;82;21646;-57
2022/04/09 07:45:10;;;;;;;2.30;1.25;;;;;;;31.84;21.25;99542.92;1730338;82;21041;-60
2022/04/09 07:47:38;;;;;;;2.90;1.15;;;;;;;32.09;21.32;99542.30;1729937;82;21905;-57
2022/04/09 07:50:07;;;;;;;2.30;1.07;;;;;;;31.63;22.01;99540.97;1730576;82;22095;-57
2022/04/09 07:52:35;;;;;;;4.05;1.20;;;;;;;31.75;21.66;99536.91;1730768;82;21483;-57
2022/04/09 07:55:04;;;;;;;1.82;1.17;;;;;;;32.11;21.37;99542.72;1730396;82;21012;-57
2022/04/09 07:57:32;;;;;;;1.98;1.10;;;;;;;32.21;21.52;99542.80;1728536;81;21044;-59
2022/04/09 07:59:59;;;;;;;2.67;1.10;;;;;;;32.34;21.22;99540.81;1730207;82;21150;-57
2022/04/09 08:02:27;;;;;;;2.83;1.40;;;;;;;33.31;20.45;99543.37;1728768;82;20991;-59
2022/04/09 08:04:54;;;;;;;3.58;1.57;;;;;;;33.61;20.15;99539.59;1730700;82;21110;-57
2022/04/09 08:07:22;;;;;;;2.65;1.60;;;;;;;32.90;20.91;99542.02;1729987;82;21013;-58
2022/04/09 08:09:51;;;;;;;2.90;1.30;;;;;;;33.08;20.96;99535.15;1730904;82;21585;-58
2022/04/09 08:12:20;;;;;;;2.65;1.20;;;;;;;33.01;18.93;99535.55;1729960;82;21476;-57
2022/04/09 08:14:47;;;;;;;1.60;0.90;;;;;;;33.01;18.93;99535.55;1730564;82;20950;-59
2022/04/09 08:17:18;;;;;;;2.30;1.30;;;;;;;32.86;19.12;99532.48;1730575;82;21005;-56
2022/04/09 08:19:45;;;;;;;2.22;1.30;;;;;;;32.62;19.74;99529.99;1730514;82;21494;-65
2022/04/09 08:22:13;;;;;;;2.42;1.07;;;;;;;32.49;19.69;99531.97;1780478;80;21047;-56
2022/04/09 08:24:44;;;;;;;1.65;1.05;;;;;;;32.63;19.69;99533.68;1777951;80;21031;-59
2022/04/09 08:27:11;;;;;;;1.55;0.90;;;;;;;32.77;19.06;99528.39;1758689;80;21027;-57
2022/04/09 08:29:39;;;;;;;2.05;1.20;;;;;;;32.52;18.23;99519.14;1777821;80;20929;-56
2022/04/09 08:32:07;;;;;;;2.02;1.10;;;;;;;32.20;18.66;99521.80;1780515;80;20917;-56
2022/04/09 08:34:35;;;;;;;2.22;1.17;;;;;;;32.11;18.67;99525.77;1779642;80;21027;-56
2022/04/09 08:37:08;;;;;;;2.65;1.30;;;;;;;32.28;18.56;99529.50;1775463;80;21258;-56
2022/04/09 08:39:36;;;;;;;3.58;1.32;;;;;;;32.14;18.59;99527.78;1776587;80;20925;-56
2022/04/09 08:42:05;;;;;;;1.72;0.80;;;;;;;32.10;18.40;99526.34;1780301;80;21071;-58
2022/04/09 08:44:34;;;;;;;2.17;0.80;;;;;;;31.97;18.68;99520.77;1779249;80;21071;-55
2022/04/09 08:47:01;;;;;;;4.03;1.00;;;;;;;31.89;18.71;99519.02;1781048;80;20905;-56
2022/04/09 08:49:34;;;;;;;2.22;0.98;;;;;;;31.98;18.69;99523.70;1779642;80;20999;-58
2022/04/09 08:52:04;;;;;;;1.98;0.80;;;;;;;32.20;18.89;99511.55;1770531;80;21110;-56
2022/04/09 08:54:31;;;;;;;2.85;0.90;;;;;;;32.37;18.86;99511.80;1748964;80;21272;-57
2022/04/09 08:57:00;;;;;;;2.80;1.30;;;;;;;32.35;19.16;99510.81;1780439;80;20973;-59
2022/04/09 08:59:27;;;;;;;2.10;0.90;;;;;;;32.48;18.69;99504.78;1780697;80;20900;-56
2022/04/09 09:01:54;;;;;;;2.45;0.98;;;;;;;32.34;17.92;99507.88;1770677;80;21952;-64
2022/04/09 09:04:21;;;;;;;2.02;0.72;;;;;;;32.14;17.89;99514.30;1775938;80;22454;-56
2022/04/09 09:06:48;;;;;;;2.95;0.90;;;;;;;32.06;17.96;99513.33;1778675;80;21587;-56
2022/04/09 09:09:32;;;;;;;1.47;0.80;;;;;;;32.16;18.57;99522.27;1780462;80;21071;-56
2022/04/09 09:12:06;;;;;;;1.72;0.90;;;;;;;32.16;18.47;99524.16;1769222;79;21040;-54
2022/04/09 09:14:34;;;;;;;2.27;1.15;;;;;;;32.32;17.83;99530.95;1771600;80;21914;-56
2022/04/09 09:17:03;;;;;;;1.97;0.93;;;;;;;32.39;17.61;99528.41;1776510;80;20979;-55
2022/04/09 09:19:48;;;;;;;1.70;0.80;;;;;;;32.33;17.83;99516.32;1779933;80;20999;-55
2022/04/09 09:22:16;;;;;;;1.50;0.80;;;;;;;32.43;17.87;99516.62;1733309;82;21074;-55
2022/04/09 09:25:04;;;;;;;1.82;0.93;;;;;;;33.54;17.55;99521.09;1677358;83;21607;-55
2022/04/09 09:27:32;;;;;;;1.67;0.97;;;;;;;32.97;17.86;99517.92;1741752;82;21883;-56
2022/04/09 09:29:59;;;;;;;2.27;0.80;;;;;;;33.31;17.45;99514.23;1743182;81;21397;-58
2022/04/09 09:32:35;;;;;;;2.20;0.90;;;;;;;32.97;17.78;99512.52;1716626;83;21686;-55
2022/04/09 09:35:10;;;;;;;2.40;1.00;;;;;;;33.02;17.60;99516.30;1735499;82;20995;-61
2022/04/09 09:37:47;;;;;;;2.17;0.80;;;;;;;32.98;17.44;99519.48;1695669;82;21137;-56
2022/04/09 09:40:36;;;;;;;2.23;1.00;;;;;;;32.80;17.35;99519.60;1714581;83;21618;-54
2022/04/09 09:43:28;;;;;;;2.57;1.20;;;;;;;32.61;17.20;99517.05;1780901;80;21012;-57
2022/04/09 09:46:01;;;;;;;1.30;0.70;;;;;;;32.50;17.36;99517.34;1773857;80;21114;-55
2022/04/09 09:48:41;;;;;;;3.45;1.00;;;;;;;32.51;17.79;99518.16;1779690;79;21034;-54
2022/04/09 09:51:20;;;;;;;1.57;0.60;;;;;;;32.55;17.52;99510.36;1778889;79;21047;-54
2022/04/09 09:54:11;;;;;;;3.30;0.90;;;;;;;32.54;17.24;99509.34;1779203;80;20884;-55
2022/04/09 09:56:53;;;;;;;2.33;0.90;;;;;;;32.23;17.31;99497.37;1774576;79;21046;-57
2022/04/09 09:59:30;;;;;;;1.53;0.80;;;;;;;31.93;17.57;99496.98;1765342;78;21008;-55
2022/04/09 10:02:05;;;;;;;2.33;0.80;;;;;;;31.84;18.11;99501.16;1773793;80;21118;-55
2022/04/09 10:04:34;;;;;;;1.87;0.80;;;;;;;31.92;17.84;99505.63;1754375;80;20988;-55
2022/04/09 10:07:01;;;;;;;1.67;0.83;;;;;;;32.44;17.24;99499.88;1779676;80;21118;-57
2022/04/09 10:09:29;;;;;;;2.00;1.03;;;;;;;32.51;16.61;99491.95;1779640;80;20952;-55
2022/04/09 10:11:57;;;;;;;1.70;0.90;;;;;;;32.11;16.81;99480.71;1769194;80;21063;-56
2022/04/09 10:14:26;;;;;;;2.23;0.90;;;;;;;32.29;17.01;99478.47;1780580;80;20940;-55
2022/04/09 10:16:53;;;;;;;3.00;0.80;;;;;;;32.08;16.57;99482.74;1781217;80;20993;-60
2022/04/09 10:19:23;;;;;;;1.77;0.80;;;;;;;31.72;17.06;99488.52;1776795;80;20947;-55
2022/04/09 10:21:51;;;;;;;1.43;0.90;;;;;;;31.69;16.89;99487.85;1779693;80;21539;-56
2022/04/09 10:24:22;;;;;;;1.77;0.77;;;;;;;31.59;16.65;99473.52;1780630;80;21059;-55
2022/04/09 10:26:49;;;;;;;1.40;0.70;;;;;;;31.48;17.01;99476.47;1779468;80;20987;-59
2022/04/09 10:29:16;;;;;;;2.13;0.83;;;;;;;31.39;17.06;99481.22;1780131;80;21027;-54
2022/04/09 10:31:51;;;;;;;1.50;0.73;;;;;;;31.18;17.37;99487.53;1779571;80;21132;-57
2022/04/09 10:34:20;;;;;;;1.60;0.80;;;;;;;31.28;17.08;99488.17;1737526;79;20989;-58
2022/04/09 10:36:55;;;;;;;1.80;0.90;;;;;;;31.14;17.01;99482.61;1775318;79;21027;-56
2022/04/09 10:39:40;;;;;;;1.53;0.70;;;;;;;31.24;16.94;99485.38;1766602;80;20993;-55
2022/04/09 10:42:07;;;;;;;3.23;1.53;;;;;;;31.04;17.04;99488.45;1733856;81;21017;-56
2022/04/09 10:44:52;;;;;;;2.00;0.80;;;;;;;30.82;16.68;99492.39;1765327;80;21806;-57
2022/04/09 10:47:21;;;;;;;2.43;0.80;;;;;;;30.84;17.18;99486.66;1780557;80;21047;-57
2022/04/09 10:50:08;;;;;;;1.53;0.70;;;;;;;30.69;17.33;99492.14;1779968;80;21695;-57
2022/04/09 10:52:37;;;;;;;1.10;0.57;;;;;;;30.80;17.31;99481.73;1779601;79;21063;-56
2022/04/09 10:55:20;;;;;;;1.50;0.70;;;;;;;31.50;17.27;99477.70;1735755;80;21510;-55
2022/04/09 10:57:48;;;;;;;1.33;0.80;;;;;;;31.67;17.15;99475.30;1776321;79;21519;-60
2022/04/09 11:00:28;;;;;;;1.60;0.77;;;;;;;32.82;16.15;99470.11;1768168;79;20932;-55
2022/04/09 11:03:15;;;;;;;1.40;0.60;;;;;;;33.07;15.39;99477.42;1777918;80;21418;-55
2022/04/09 11:05:43;;;;;;;2.00;0.60;;;;;;;32.73;15.03;99484.34;1733213;80;21044;-56
2022/04/09 11:08:21;;;;;;;1.10;0.53;;;;;;;32.28;15.36;99480.15;1780563;80;21099;-56
2022/04/09 11:10:49;;;;;;;2.13;0.67;;;;;;;31.85;15.64;99475.80;1780346;80;21210;-56
2022/04/09 11:13:23;;;;;;;1.60;0.60;;;;;;;31.80;15.82;99480.63;1780329;80;21023;-57
2022/04/09 11:15:55;;;;;;;2.57;0.90;;;;;;;31.53;16.02;99482.20;1779179;80;20974;-56
2022/04/09 11:18:24;;;;;;;1.70;0.70;;;;;;;31.43;16.09;99482.89;1780734;80;21007;-55
2022/04/09 11:20:53;;;;;;;1.73;0.70;;;;;;;31.22;16.30;99483.61;1780058;80;21067;-59
2022/04/09 11:23:24;;;;;;;1.67;0.60;;;;;;;31.09;16.73;99482.83;1780491;80;21534;-57
2022/04/09 11:25:51;;;;;;;1.27;0.57;;;;;;;30.90;17.30;99483.97;1779066;80;21672;-55
2022/04/09 11:28:19;;;;;;;1.27;0.60;;;;;;;31.12;17.10;99492.14;1780713;80;20948;-54
2022/04/09 11:30:55;;;;;;;2.17;1.13;;;;;;;31.32;17.12;99493.13;1779983;79;20990;-55
2022/04/09 11:33:23;;;;;;;2.37;0.90;;;;;;;31.41;16.90;99491.89;1780800;80;21261;-54
2022/04/09 11:35:52;;;;;;;3.33;1.33;;;;;;;31.47;16.69;99487.81;1780069;80;22127;-55
2022/04/09 11:38:19;;;;;;;1.60;0.80;;;;;;;31.35;16.65;99478.42;1774641;79;20889;-55
2022/04/09 11:40:46;;;;;;;1.73;1.10;;;;;;;30.94;16.85;99474.09;1774216;80;20931;-59
2022/04/09 11:43:15;;;;;;;1.30;0.70;;;;;;;30.90;17.12;99468.60;1777209;80;20905;-54
2022/04/09 11:45:42;;;;;;;2.00;1.00;;;;;;;30.83;16.92;99469.73;1779566;80;20991;-54